Terminal Aerodrome Forecast
Issued by NWS

Home | Current Version | Previous Version | Text Only | Print | Product List | Glossary On
Versions: 1 2 3 4 5 6 7 8 9 10 11 12 13 14
000
FTUS42 TJSJ 291125
TAFJBQ
TAF
TJBQ 291125Z 2912/3012 11005KT P6SM FEW025 BKN060
     FM291330 08015G25KT P6SM FEW025 SCT050
     FM292330 11005KT P6SM SCT025=

USA.gov is the U.S. government's official web portal to all federal, state and local government web resources and services.